sensor_id;sensor_type;location;lat;lon;timestamp;P1;durP1;ratioP1;P2;durP2;ratioP2
5847;SDS011;8756;49.29324300;8.70599800;2022-12-11T04:45:05;63.90;;;30.90;;
5847;SDS011;8756;49.29324300;8.70599800;2022-12-11T04:47:45;65.67;;;31.07;;
5847;SDS011;8756;49.29324300;8.70599800;2022-12-11T04:50:12;66.70;;;32.20;;
5847;SDS011;8756;49.29324300;8.70599800;2022-12-11T04:52:39;63.17;;;31.13;;
5847;SDS011;8756;49.29324300;8.70599800;2022-12-11T04:55:05;68.97;;;30.80;;
5847;SDS011;8756;49.29324300;8.70599800;2022-12-11T04:57:32;65.73;;;29.03;;
5847;SDS011;8756;49.29324300;8.70599800;2022-12-11T04:59:59;62.07;;;30.23;;
5847;SDS011;8756;49.29324300;8.70599800;2022-12-11T05:02:25;68.03;;;31.80;;
5847;SDS011;8756;49.29324300;8.70599800;2022-12-11T05:04:50;58.67;;;28.87;;
5847;SDS011;8756;49.29324300;8.70599800;2022-12-11T05:07:16;70.70;;;32.07;;
5847;SDS011;8756;49.29324300;8.70599800;2022-12-11T05:09:42;57.57;;;30.80;;
5847;SDS011;8756;49.29324300;8.70599800;2022-12-11T05:12:08;63.10;;;29.87;;
5847;SDS011;8756;49.29324300;8.70599800;2022-12-11T05:14:33;64.93;;;31.90;;
5847;SDS011;8756;49.29324300;8.70599800;2022-12-11T05:16:59;63.07;;;32.00;;
5847;SDS011;8756;49.29324300;8.70599800;2022-12-11T05:19:25;63.50;;;31.17;;
5847;SDS011;8756;49.29324300;8.70599800;2022-12-11T05:21:51;60.20;;;30.53;;
5847;SDS011;8756;49.29324300;8.70599800;2022-12-11T05:24:17;71.27;;;33.20;;
5847;SDS011;8756;49.29324300;8.70599800;2022-12-11T05:26:43;68.37;;;30.80;;
5847;SDS011;8756;49.29324300;8.70599800;2022-12-11T05:29:09;60.70;;;29.33;;
5847;SDS011;8756;49.29324300;8.70599800;2022-12-11T05:31:35;62.97;;;29.37;;
5847;SDS011;8756;49.29324300;8.70599800;2022-12-11T05:34:00;64.20;;;30.80;;
5847;SDS011;8756;49.29324300;8.70599800;2022-12-11T05:36:28;61.97;;;32.57;;
5847;SDS011;8756;49.29324300;8.70599800;2022-12-11T05:38:56;64.00;;;30.80;;
5847;SDS011;8756;49.29324300;8.70599800;2022-12-11T05:41:24;62.67;;;30.97;;
5847;SDS011;8756;49.29324300;8.70599800;2022-12-11T05:43:52;60.53;;;29.83;;
5847;SDS011;8756;49.29324300;8.70599800;2022-12-11T05:46:22;63.27;;;30.30;;
5847;SDS011;8756;49.29324300;8.70599800;2022-12-11T05:48:51;68.83;;;32.37;;
5847;SDS011;8756;49.29324300;8.70599800;2022-12-11T05:51:21;71.40;;;33.07;;
5847;SDS011;8756;49.29324300;8.70599800;2022-12-11T05:53:47;66.30;;;32.70;;
5847;SDS011;8756;49.29324300;8.70599800;2022-12-11T05:56:16;67.13;;;31.10;;
5847;SDS011;8756;49.29324300;8.70599800;2022-12-11T05:58:51;70.03;;;31.20;;
5847;SDS011;8756;49.29324300;8.70599800;2022-12-11T06:01:20;67.47;;;31.70;;
5847;SDS011;8756;49.29324300;8.70599800;2022-12-11T06:03:56;66.30;;;30.10;;
5847;SDS011;8756;49.29324300;8.70599800;2022-12-11T06:06:23;64.23;;;31.03;;
5847;SDS011;8756;49.29324300;8.70599800;2022-12-11T06:08:50;77.10;;;31.83;;
5847;SDS011;8756;49.29324300;8.70599800;2022-12-11T06:11:17;68.63;;;32.97;;
5847;SDS011;8756;49.29324300;8.70599800;2022-12-11T06:13:44;68.57;;;31.63;;
5847;SDS011;8756;49.29324300;8.70599800;2022-12-11T06:16:09;71.43;;;31.33;;
5847;SDS011;8756;49.29324300;8.70599800;2022-12-11T06:18:45;72.67;;;33.27;;
5847;SDS011;8756;49.29324300;8.70599800;2022-12-11T06:21:12;66.43;;;31.07;;
5847;SDS011;8756;49.29324300;8.70599800;2022-12-11T06:23:44;65.87;;;31.37;;
5847;SDS011;8756;49.29324300;8.70599800;2022-12-11T06:26:11;75.20;;;32.90;;
5847;SDS011;8756;49.29324300;8.70599800;2022-12-11T06:28:38;62.30;;;27.27;;
5847;SDS011;8756;49.29324300;8.70599800;2022-12-11T06:31:04;72.27;;;31.00;;
5847;SDS011;8756;49.29324300;8.70599800;2022-12-11T06:33:31;71.43;;;33.20;;
5847;SDS011;8756;49.29324300;8.70599800;2022-12-11T06:36:04;67.30;;;31.77;;
5847;SDS011;8756;49.29324300;8.70599800;2022-12-11T06:38:33;57.10;;;28.90;;
5847;SDS011;8756;49.29324300;8.70599800;2022-12-11T06:41:00;64.70;;;30.37;;
5847;SDS011;8756;49.29324300;8.70599800;2022-12-11T06:43:29;53.63;;;29.10;;
5847;SDS011;8756;49.29324300;8.70599800;2022-12-11T06:45:56;62.23;;;29.77;;
5847;SDS011;8756;49.29324300;8.70599800;2022-12-11T06:48:21;66.53;;;29.70;;
5847;SDS011;8756;49.29324300;8.70599800;2022-12-11T06:50:47;65.10;;;28.80;;
5847;SDS011;8756;49.29324300;8.70599800;2022-12-11T06:53:13;61.40;;;28.00;;
5847;SDS011;8756;49.29324300;8.70599800;2022-12-11T06:55:40;60.83;;;29.60;;
5847;SDS011;8756;49.29324300;8.70599800;2022-12-11T06:58:06;71.00;;;30.57;;
5847;SDS011;8756;49.29324300;8.70599800;2022-12-11T07:00:34;60.53;;;27.73;;
5847;SDS011;8756;49.29324300;8.70599800;2022-12-11T07:03:00;59.90;;;27.80;;
5847;SDS011;8756;49.29324300;8.70599800;2022-12-11T07:05:26;64.80;;;30.97;;
5847;SDS011;8756;49.29324300;8.70599800;2022-12-11T07:07:52;62.67;;;29.50;;
5847;SDS011;8756;49.29324300;8.70599800;2022-12-11T07:10:19;64.57;;;30.30;;
5847;SDS011;8756;49.29324300;8.70599800;2022-12-11T07:12:45;66.00;;;29.30;;
5847;SDS011;8756;49.29324300;8.70599800;2022-12-11T07:15:11;66.67;;;29.97;;
5847;SDS011;8756;49.29324300;8.70599800;2022-12-11T07:17:37;55.63;;;28.50;;
5847;SDS011;8756;49.29324300;8.70599800;2022-12-11T07:20:03;53.93;;;27.10;;
5847;SDS011;8756;49.29324300;8.70599800;2022-12-11T07:22:29;68.87;;;29.30;;
5847;SDS011;8756;49.29324300;8.70599800;2022-12-11T07:24:55;59.20;;;28.73;;
5847;SDS011;8756;49.29324300;8.70599800;2022-12-11T07:27:21;62.90;;;29.30;;
5847;SDS011;8756;49.29324300;8.70599800;2022-12-11T07:29:46;68.20;;;29.13;;
5847;SDS011;8756;49.29324300;8.70599800;2022-12-11T07:32:12;61.53;;;27.40;;
5847;SDS011;8756;49.29324300;8.70599800;2022-12-11T07:34:38;58.00;;;28.80;;
5847;SDS011;8756;49.29324300;8.70599800;2022-12-11T07:37:04;55.47;;;29.03;;
5847;SDS011;8756;49.29324300;8.70599800;2022-12-11T07:39:30;61.70;;;29.60;;
5847;SDS011;8756;49.29324300;8.70599800;2022-12-11T07:41:55;60.73;;;28.23;;
5847;SDS011;8756;49.29324300;8.70599800;2022-12-11T07:44:21;66.77;;;30.40;;
5847;SDS011;8756;49.29324300;8.70599800;2022-12-11T07:46:47;65.43;;;31.17;;
5847;SDS011;8756;49.29324300;8.70599800;2022-12-11T07:49:13;56.60;;;26.67;;
5847;SDS011;8756;49.29324300;8.70599800;2022-12-11T07:51:38;63.00;;;29.40;;
5847;SDS011;8756;49.29324300;8.70599800;2022-12-11T07:54:10;66.90;;;27.57;;
5847;SDS011;8756;49.29324300;8.70599800;2022-12-11T07:56:40;60.73;;;29.73;;
5847;SDS011;8756;49.29324300;8.70599800;2022-12-11T07:59:08;56.73;;;27.63;;
5847;SDS011;8756;49.29324300;8.70599800;2022-12-11T08:01:34;57.33;;;26.83;;
5847;SDS011;8756;49.29324300;8.70599800;2022-12-11T08:04:02;53.10;;;27.33;;
5847;SDS011;8756;49.29324300;8.70599800;2022-12-11T08:06:33;54.20;;;27.97;;
5847;SDS011;8756;49.29324300;8.70599800;2022-12-11T08:09:03;58.87;;;28.90;;
5847;SDS011;8756;49.29324300;8.70599800;2022-12-11T08:11:32;59.53;;;28.83;;
5847;SDS011;8756;49.29324300;8.70599800;2022-12-11T08:13:58;64.03;;;27.33;;
5847;SDS011;8756;49.29324300;8.70599800;2022-12-11T08:16:24;59.07;;;27.90;;
5847;SDS011;8756;49.29324300;8.70599800;2022-12-11T08:18:51;51.73;;;26.43;;
5847;SDS011;8756;49.29324300;8.70599800;2022-12-11T08:21:19;54.47;;;26.47;;
5847;SDS011;8756;49.29324300;8.70599800;2022-12-11T08:23:50;57.00;;;25.93;;
5847;SDS011;8756;49.29324300;8.70599800;2022-12-11T08:26:27;58.70;;;25.07;;
5847;SDS011;8756;49.29324300;8.70599800;2022-12-11T08:28:55;67.97;;;25.87;;
5847;SDS011;8756;49.29324300;8.70599800;2022-12-11T08:31:22;57.10;;;27.07;;
5847;SDS011;8756;49.29324300;8.70599800;2022-12-11T08:33:49;54.80;;;26.73;;
5847;SDS011;8756;49.29324300;8.70599800;2022-12-11T08:36:17;53.53;;;27.00;;
5847;SDS011;8756;49.29324300;8.70599800;2022-12-11T08:38:45;56.67;;;26.00;;
5847;SDS011;8756;49.29324300;8.70599800;2022-12-11T08:43:45;58.30;;;27.90;;
5847;SDS011;8756;49.29324300;8.70599800;2022-12-11T08:46:12;59.97;;;27.97;;
5847;SDS011;8756;49.29324300;8.70599800;2022-12-11T08:48:39;54.13;;;27.83;;
5847;SDS011;8756;49.29324300;8.70599800;2022-12-11T08:51:08;59.87;;;27.67;;
5847;SDS011;8756;49.29324300;8.70599800;2022-12-11T08:53:37;56.80;;;29.07;;
5847;SDS011;8756;49.29324300;8.70599800;2022-12-11T08:56:05;64.70;;;28.33;;
5847;SDS011;8756;49.29324300;8.70599800;2022-12-11T08:58:35;58.97;;;29.87;;
5847;SDS011;8756;49.29324300;8.70599800;2022-12-11T09:01:05;65.37;;;28.40;;
5847;SDS011;8756;49.29324300;8.70599800;2022-12-11T09:03:39;54.50;;;27.47;;
5847;SDS011;8756;49.29324300;8.70599800;2022-12-11T09:06:06;56.20;;;26.70;;
5847;SDS011;8756;49.29324300;8.70599800;2022-12-11T09:08:35;53.83;;;26.30;;
5847;SDS011;8756;49.29324300;8.70599800;2022-12-11T09:11:04;57.50;;;25.27;;
5847;SDS011;8756;49.29324300;8.70599800;2022-12-11T09:13:36;54.30;;;27.23;;
5847;SDS011;8756;49.29324300;8.70599800;2022-12-11T09:16:03;55.83;;;26.17;;
5847;SDS011;8756;49.29324300;8.70599800;2022-12-11T09:18:33;58.10;;;25.20;;
5847;SDS011;8756;49.29324300;8.70599800;2022-12-11T09:21:00;53.87;;;26.23;;
5847;SDS011;8756;49.29324300;8.70599800;2022-12-11T09:23:29;49.50;;;24.57;;
5847;SDS011;8756;49.29324300;8.70599800;2022-12-11T09:25:55;58.03;;;26.37;;
5847;SDS011;8756;49.29324300;8.70599800;2022-12-11T09:28:21;54.83;;;26.73;;
5847;SDS011;8756;49.29324300;8.70599800;2022-12-11T09:30:47;54.57;;;26.17;;
5847;SDS011;8756;49.29324300;8.70599800;2022-12-11T09:33:14;55.03;;;26.40;;
5847;SDS011;8756;49.29324300;8.70599800;2022-12-11T09:35:39;52.10;;;26.93;;
5847;SDS011;8756;49.29324300;8.70599800;2022-12-11T09:38:05;57.57;;;27.67;;
5847;SDS011;8756;49.29324300;8.70599800;2022-12-11T09:40:31;51.50;;;23.90;;
5847;SDS011;8756;49.29324300;8.70599800;2022-12-11T09:42:58;58.07;;;28.07;;
5847;SDS011;8756;49.29324300;8.70599800;2022-12-11T09:45:45;58.97;;;25.20;;
5847;SDS011;8756;49.29324300;8.70599800;2022-12-11T09:48:13;52.37;;;23.73;;
5847;SDS011;8756;49.29324300;8.70599800;2022-12-11T09:50:44;57.60;;;28.00;;
5847;SDS011;8756;49.29324300;8.70599800;2022-12-11T09:53:34;59.97;;;28.00;;
5847;SDS011;8756;49.29324300;8.70599800;2022-12-11T09:56:20;60.47;;;28.20;;
5847;SDS011;8756;49.29324300;8.70599800;2022-12-11T10:01:45;61.37;;;27.63;;
5847;SDS011;8756;49.29324300;8.70599800;2022-12-11T10:07:37;65.50;;;29.83;;
5847;SDS011;8756;49.29324300;8.70599800;2022-12-11T10:10:17;54.97;;;26.60;;
5847;SDS011;8756;49.29324300;8.70599800;2022-12-11T10:13:15;58.63;;;26.70;;
5847;SDS011;8756;49.29324300;8.70599800;2022-12-11T10:15:56;58.87;;;27.10;;
5847;SDS011;8756;49.29324300;8.70599800;2022-12-11T10:18:48;61.30;;;26.90;;
5847;SDS011;8756;49.29324300;8.70599800;2022-12-11T10:21:15;51.90;;;24.80;;
5847;SDS011;8756;49.29324300;8.70599800;2022-12-11T10:23:43;54.97;;;26.67;;
5847;SDS011;8756;49.29324300;8.70599800;2022-12-11T10:26:21;54.83;;;25.03;;
5847;SDS011;8756;49.29324300;8.70599800;2022-12-11T10:28:48;58.47;;;25.67;;
5847;SDS011;8756;49.29324300;8.70599800;2022-12-11T10:31:17;61.73;;;27.57;;
5847;SDS011;8756;49.29324300;8.70599800;2022-12-11T10:33:59;52.70;;;26.60;;
5847;SDS011;8756;49.29324300;8.70599800;2022-12-11T10:36:38;58.60;;;27.70;;
5847;SDS011;8756;49.29324300;8.70599800;2022-12-11T10:39:13;61.13;;;27.90;;
5847;SDS011;8756;49.29324300;8.70599800;2022-12-11T10:41:41;52.27;;;25.53;;
5847;SDS011;8756;49.29324300;8.70599800;2022-12-11T10:44:29;58.57;;;27.40;;
5847;SDS011;8756;49.29324300;8.70599800;2022-12-11T10:47:03;62.20;;;27.50;;
5847;SDS011;8756;49.29324300;8.70599800;2022-12-11T10:49:34;57.67;;;25.23;;
5847;SDS011;8756;49.29324300;8.70599800;2022-12-11T10:52:18;65.20;;;29.00;;
5847;SDS011;8756;49.29324300;8.70599800;2022-12-11T10:55:37;59.03;;;27.83;;
5847;SDS011;8756;49.29324300;8.70599800;2022-12-11T10:57:52;63.70;;;27.67;;
5847;SDS011;8756;49.29324300;8.70599800;2022-12-11T11:00:27;56.57;;;26.57;;
5847;SDS011;8756;49.29324300;8.70599800;2022-12-11T11:03:04;55.50;;;25.13;;
5847;SDS011;8756;49.29324300;8.70599800;2022-12-11T11:06:00;58.70;;;27.63;;
5847;SDS011;8756;49.29324300;8.70599800;2022-12-11T11:08:41;55.87;;;26.10;;
5847;SDS011;8756;49.29324300;8.70599800;2022-12-11T11:14:15;51.00;;;25.30;;
5847;SDS011;8756;49.29324300;8.70599800;2022-12-11T11:16:49;56.47;;;25.70;;
5847;SDS011;8756;49.29324300;8.70599800;2022-12-11T11:21:56;54.10;;;26.03;;
5847;SDS011;8756;49.29324300;8.70599800;2022-12-11T11:24:29;65.10;;;28.20;;
5847;SDS011;8756;49.29324300;8.70599800;2022-12-11T11:30:02;60.07;;;26.30;;
5847;SDS011;8756;49.29324300;8.70599800;2022-12-11T11:32:38;52.00;;;25.40;;
5847;SDS011;8756;49.29324300;8.70599800;2022-12-11T11:37:37;49.63;;;24.30;;
5847;SDS011;8756;49.29324300;8.70599800;2022-12-11T11:40:17;51.10;;;24.83;;
5847;SDS011;8756;49.29324300;8.70599800;2022-12-11T11:46:03;52.13;;;25.43;;
5847;SDS011;8756;49.29324300;8.70599800;2022-12-11T11:51:44;54.73;;;27.07;;
5847;SDS011;8756;49.29324300;8.70599800;2022-12-11T11:57:05;49.10;;;24.00;;
5847;SDS011;8756;49.29324300;8.70599800;2022-12-11T11:59:45;50.47;;;24.70;;
5847;SDS011;8756;49.29324300;8.70599800;2022-12-11T12:02:17;53.37;;;25.23;;
5847;SDS011;8756;49.29324300;8.70599800;2022-12-11T12:04:44;52.40;;;26.10;;
5847;SDS011;8756;49.29324300;8.70599800;2022-12-11T12:13:36;52.33;;;25.10;;
5847;SDS011;8756;49.29324300;8.70599800;2022-12-11T12:22:41;51.53;;;24.10;;
5847;SDS011;8756;49.29324300;8.70599800;2022-12-11T12:28:04;53.47;;;24.03;;
5847;SDS011;8756;49.29324300;8.70599800;2022-12-11T12:31:03;54.67;;;25.53;;
5847;SDS011;8756;49.29324300;8.70599800;2022-12-11T12:33:52;51.33;;;23.20;;
5847;SDS011;8756;49.29324300;8.70599800;2022-12-11T12:45:58;56.93;;;27.83;;
5847;SDS011;8756;49.29324300;8.70599800;2022-12-11T12:48:48;53.60;;;23.63;;
5847;SDS011;8756;49.29324300;8.70599800;2022-12-11T12:51:15;58.40;;;26.57;;
5847;SDS011;8756;49.29324300;8.70599800;2022-12-11T12:54:01;59.50;;;28.30;;
5847;SDS011;8756;49.29324300;8.70599800;2022-12-11T12:56:29;63.83;;;28.07;;
5847;SDS011;8756;49.29324300;8.70599800;2022-12-11T12:58:57;53.13;;;26.43;;
5847;SDS011;8756;49.29324300;8.70599800;2022-12-11T13:01:23;52.80;;;25.57;;
5847;SDS011;8756;49.29324300;8.70599800;2022-12-11T13:03:55;48.90;;;25.70;;
5847;SDS011;8756;49.29324300;8.70599800;2022-12-11T13:11:48;49.97;;;25.97;;
5847;SDS011;8756;49.29324300;8.70599800;2022-12-11T13:14:22;47.27;;;24.70;;
5847;SDS011;8756;49.29324300;8.70599800;2022-12-11T13:19:46;55.90;;;26.13;;
5847;SDS011;8756;49.29324300;8.70599800;2022-12-11T13:24:46;57.13;;;27.33;;
5847;SDS011;8756;49.29324300;8.70599800;2022-12-11T13:27:26;49.33;;;25.87;;
5847;SDS011;8756;49.29324300;8.70599800;2022-12-11T13:32:38;49.57;;;25.00;;
5847;SDS011;8756;49.29324300;8.70599800;2022-12-11T13:35:05;50.73;;;25.23;;
5847;SDS011;8756;49.29324300;8.70599800;2022-12-11T13:37:43;52.23;;;27.17;;
5847;SDS011;8756;49.29324300;8.70599800;2022-12-11T13:40:15;49.50;;;24.37;;
5847;SDS011;8756;49.29324300;8.70599800;2022-12-11T13:42:49;55.60;;;28.03;;
5847;SDS011;8756;49.29324300;8.70599800;2022-12-11T13:45:21;58.40;;;26.70;;
5847;SDS011;8756;49.29324300;8.70599800;2022-12-11T13:47:55;49.83;;;26.27;;
5847;SDS011;8756;49.29324300;8.70599800;2022-12-11T13:50:23;52.53;;;26.47;;
5847;SDS011;8756;49.29324300;8.70599800;2022-12-11T13:52:54;55.30;;;28.57;;
5847;SDS011;8756;49.29324300;8.70599800;2022-12-11T13:55:24;51.10;;;25.87;;
5847;SDS011;8756;49.29324300;8.70599800;2022-12-11T13:57:58;51.70;;;26.43;;
5847;SDS011;8756;49.29324300;8.70599800;2022-12-11T14:00:25;54.73;;;25.87;;
5847;SDS011;8756;49.29324300;8.70599800;2022-12-11T14:02:55;49.10;;;25.23;;
5847;SDS011;8756;49.29324300;8.70599800;2022-12-11T14:05:26;64.23;;;28.57;;
5847;SDS011;8756;49.29324300;8.70599800;2022-12-11T14:07:54;56.43;;;26.57;;
5847;SDS011;8756;49.29324300;8.70599800;2022-12-11T14:10:23;55.47;;;26.97;;
5847;SDS011;8756;49.29324300;8.70599800;2022-12-11T14:15:23;54.83;;;25.93;;
5847;SDS011;8756;49.29324300;8.70599800;2022-12-11T14:17:50;59.10;;;27.73;;
5847;SDS011;8756;49.29324300;8.70599800;2022-12-11T14:20:18;59.93;;;29.20;;
5847;SDS011;8756;49.29324300;8.70599800;2022-12-11T14:25:37;69.23;;;30.00;;
5847;SDS011;8756;49.29324300;8.70599800;2022-12-11T14:28:03;59.90;;;27.47;;
5847;SDS011;8756;49.29324300;8.70599800;2022-12-11T14:30:43;60.00;;;28.73;;
5847;SDS011;8756;49.29324300;8.70599800;2022-12-11T14:33:15;53.50;;;27.70;;
5847;SDS011;8756;49.29324300;8.70599800;2022-12-11T14:35:46;58.93;;;28.63;;
5847;SDS011;8756;49.29324300;8.70599800;2022-12-11T14:38:22;53.83;;;27.93;;
5847;SDS011;8756;49.29324300;8.70599800;2022-12-11T14:40:58;66.03;;;30.17;;
5847;SDS011;8756;49.29324300;8.70599800;2022-12-11T14:43:39;59.60;;;29.23;;
5847;SDS011;8756;49.29324300;8.70599800;2022-12-11T14:46:16;60.60;;;29.90;;
5847;SDS011;8756;49.29324300;8.70599800;2022-12-11T14:48:47;53.57;;;27.07;;
5847;SDS011;8756;49.29324300;8.70599800;2022-12-11T14:51:22;60.60;;;29.67;;
5847;SDS011;8756;49.29324300;8.70599800;2022-12-11T14:53:50;53.33;;;28.37;;
5847;SDS011;8756;49.29324300;8.70599800;2022-12-11T14:56:18;51.70;;;24.50;;
5847;SDS011;8756;49.29324300;8.70599800;2022-12-11T14:58:52;53.93;;;28.63;;
5847;SDS011;8756;49.29324300;8.70599800;2022-12-11T15:01:34;51.30;;;28.50;;
5847;SDS011;8756;49.29324300;8.70599800;2022-12-11T15:04:05;56.93;;;25.80;;
5847;SDS011;8756;49.29324300;8.70599800;2022-12-11T15:06:50;56.97;;;29.10;;
5847;SDS011;8756;49.29324300;8.70599800;2022-12-11T15:11:50;56.90;;;27.70;;
5847;SDS011;8756;49.29324300;8.70599800;2022-12-11T15:14:18;56.97;;;26.50;;
5847;SDS011;8756;49.29324300;8.70599800;2022-12-11T15:16:47;59.60;;;28.77;;
5847;SDS011;8756;49.29324300;8.70599800;2022-12-11T15:19:19;56.83;;;28.30;;
5847;SDS011;8756;49.29324300;8.70599800;2022-12-11T15:21:50;58.13;;;27.07;;
5847;SDS011;8756;49.29324300;8.70599800;2022-12-11T15:24:50;57.93;;;28.17;;
5847;SDS011;8756;49.29324300;8.70599800;2022-12-11T15:27:32;68.40;;;36.40;;
5847;SDS011;8756;49.29324300;8.70599800;2022-12-11T15:32:45;60.07;;;26.87;;
5847;SDS011;8756;49.29324300;8.70599800;2022-12-11T15:35:19;63.47;;;29.57;;
5847;SDS011;8756;49.29324300;8.70599800;2022-12-11T15:37:52;55.90;;;27.80;;
5847;SDS011;8756;49.29324300;8.70599800;2022-12-11T15:40:21;59.53;;;30.60;;
5847;SDS011;8756;49.29324300;8.70599800;2022-12-11T15:42:48;57.83;;;29.13;;
5847;SDS011;8756;49.29324300;8.70599800;2022-12-11T15:45:18;53.33;;;29.53;;
5847;SDS011;8756;49.29324300;8.70599800;2022-12-11T15:47:47;55.40;;;28.63;;
5847;SDS011;8756;49.29324300;8.70599800;2022-12-11T15:50:21;54.57;;;27.70;;
5847;SDS011;8756;49.29324300;8.70599800;2022-12-11T15:52:52;61.03;;;29.13;;
5847;SDS011;8756;49.29324300;8.70599800;2022-12-11T15:55:20;62.93;;;30.30;;
5847;SDS011;8756;49.29324300;8.70599800;2022-12-11T15:57:52;62.20;;;30.50;;
5847;SDS011;8756;49.29324300;8.70599800;2022-12-11T16:00:21;59.17;;;27.87;;
5847;SDS011;8756;49.29324300;8.70599800;2022-12-11T16:02:48;61.10;;;29.93;;
5847;SDS011;8756;49.29324300;8.70599800;2022-12-11T16:05:14;58.20;;;28.90;;
5847;SDS011;8756;49.29324300;8.70599800;2022-12-11T16:07:40;62.07;;;31.00;;
5847;SDS011;8756;49.29324300;8.70599800;2022-12-11T16:10:06;63.47;;;32.63;;
5847;SDS011;8756;49.29324300;8.70599800;2022-12-11T16:12:38;68.83;;;31.93;;
5847;SDS011;8756;49.29324300;8.70599800;2022-12-11T16:15:04;57.30;;;27.93;;
5847;SDS011;8756;49.29324300;8.70599800;2022-12-11T16:17:30;64.10;;;27.70;;
5847;SDS011;8756;49.29324300;8.70599800;2022-12-11T16:19:56;58.80;;;28.90;;
5847;SDS011;8756;49.29324300;8.70599800;2022-12-11T16:22:22;63.10;;;28.63;;
5847;SDS011;8756;49.29324300;8.70599800;2022-12-11T16:24:51;62.40;;;29.73;;
5847;SDS011;8756;49.29324300;8.70599800;2022-12-11T16:27:18;57.73;;;28.93;;
5847;SDS011;8756;49.29324300;8.70599800;2022-12-11T16:29:45;57.27;;;29.03;;
5847;SDS011;8756;49.29324300;8.70599800;2022-12-11T16:32:11;59.03;;;28.67;;
5847;SDS011;8756;49.29324300;8.70599800;2022-12-11T16:34:37;57.47;;;29.00;;
5847;SDS011;8756;49.29324300;8.70599800;2022-12-11T16:37:04;59.43;;;29.87;;
5847;SDS011;8756;49.29324300;8.70599800;2022-12-11T16:39:31;50.87;;;25.63;;
5847;SDS011;8756;49.29324300;8.70599800;2022-12-11T16:42:00;67.60;;;30.00;;
5847;SDS011;8756;49.29324300;8.70599800;2022-12-11T16:44:25;58.67;;;27.17;;
5847;SDS011;8756;49.29324300;8.70599800;2022-12-11T16:46:51;53.50;;;25.37;;
5847;SDS011;8756;49.29324300;8.70599800;2022-12-11T16:49:18;58.47;;;28.43;;
5847;SDS011;8756;49.29324300;8.70599800;2022-12-11T16:51:46;54.33;;;27.43;;
5847;SDS011;8756;49.29324300;8.70599800;2022-12-11T16:54:15;53.93;;;27.90;;
5847;SDS011;8756;49.29324300;8.70599800;2022-12-11T16:56:41;55.43;;;30.63;;
5847;SDS011;8756;49.29324300;8.70599800;2022-12-11T16:59:07;59.30;;;29.37;;
5847;SDS011;8756;49.29324300;8.70599800;2022-12-11T17:01:33;59.83;;;26.97;;
5847;SDS011;8756;49.29324300;8.70599800;2022-12-11T17:03:59;60.03;;;27.37;;
5847;SDS011;8756;49.29324300;8.70599800;2022-12-11T17:06:25;56.37;;;29.13;;
5847;SDS011;8756;49.29324300;8.70599800;2022-12-11T17:08:52;54.13;;;27.73;;
5847;SDS011;8756;49.29324300;8.70599800;2022-12-11T17:11:19;58.23;;;28.90;;
5847;SDS011;8756;49.29324300;8.70599800;2022-12-11T17:13:47;56.10;;;27.57;;
5847;SDS011;8756;49.29324300;8.70599800;2022-12-11T17:16:26;58.10;;;28.87;;
5847;SDS011;8756;49.29324300;8.70599800;2022-12-11T17:18:56;53.80;;;26.33;;
5847;SDS011;8756;49.29324300;8.70599800;2022-12-11T17:21:22;52.57;;;25.50;;
5847;SDS011;8756;49.29324300;8.70599800;2022-12-11T17:23:48;61.97;;;28.73;;
5847;SDS011;8756;49.29324300;8.70599800;2022-12-11T17:26:15;59.30;;;28.40;;
5847;SDS011;8756;49.29324300;8.70599800;2022-12-11T17:28:42;59.00;;;27.43;;
5847;SDS011;8756;49.29324300;8.70599800;2022-12-11T17:31:10;53.67;;;26.73;;
5847;SDS011;8756;49.29324300;8.70599800;2022-12-11T17:33:41;55.00;;;28.90;;
5847;SDS011;8756;49.29324300;8.70599800;2022-12-11T17:36:09;62.30;;;29.17;;
5847;SDS011;8756;49.29324300;8.70599800;2022-12-11T17:38:38;62.57;;;30.17;;
5847;SDS011;8756;49.29324300;8.70599800;2022-12-11T17:41:05;56.50;;;28.70;;
5847;SDS011;8756;49.29324300;8.70599800;2022-12-11T17:43:32;55.33;;;30.37;;
5847;SDS011;8756;49.29324300;8.70599800;2022-12-11T17:45:58;70.23;;;33.47;;
5847;SDS011;8756;49.29324300;8.70599800;2022-12-11T17:48:24;60.93;;;30.10;;
5847;SDS011;8756;49.29324300;8.70599800;2022-12-11T17:50:50;62.63;;;32.27;;
5847;SDS011;8756;49.29324300;8.70599800;2022-12-11T17:53:18;64.57;;;33.93;;
5847;SDS011;8756;49.29324300;8.70599800;2022-12-11T17:55:46;64.03;;;32.30;;
5847;SDS011;8756;49.29324300;8.70599800;2022-12-11T17:58:13;62.20;;;33.47;;
5847;SDS011;8756;49.29324300;8.70599800;2022-12-11T18:00:45;62.20;;;32.47;;
5847;SDS011;8756;49.29324300;8.70599800;2022-12-11T18:03:12;60.03;;;31.27;;
5847;SDS011;8756;49.29324300;8.70599800;2022-12-11T18:05:42;60.37;;;30.10;;
5847;SDS011;8756;49.29324300;8.70599800;2022-12-11T18:08:11;63.17;;;29.23;;
5847;SDS011;8756;49.29324300;8.70599800;2022-12-11T18:10:42;69.07;;;35.20;;
5847;SDS011;8756;49.29324300;8.70599800;2022-12-11T18:13:09;63.00;;;34.50;;
5847;SDS011;8756;49.29324300;8.70599800;2022-12-11T18:15:35;72.20;;;35.10;;
5847;SDS011;8756;49.29324300;8.70599800;2022-12-11T18:18:02;67.73;;;35.53;;
5847;SDS011;8756;49.29324300;8.70599800;2022-12-11T18:20:29;67.43;;;34.57;;
5847;SDS011;8756;49.29324300;8.70599800;2022-12-11T18:22:57;62.67;;;32.63;;
5847;SDS011;8756;49.29324300;8.70599800;2022-12-11T18:25:23;69.57;;;33.10;;
5847;SDS011;8756;49.29324300;8.70599800;2022-12-11T18:27:49;66.77;;;33.40;;
5847;SDS011;8756;49.29324300;8.70599800;2022-12-11T18:30:16;67.80;;;34.63;;
5847;SDS011;8756;49.29324300;8.70599800;2022-12-11T18:32:42;61.33;;;31.40;;
5847;SDS011;8756;49.29324300;8.70599800;2022-12-11T18:35:09;67.70;;;37.30;;
5847;SDS011;8756;49.29324300;8.70599800;2022-12-11T18:37:36;71.07;;;36.07;;
5847;SDS011;8756;49.29324300;8.70599800;2022-12-11T18:40:02;79.53;;;37.80;;
5847;SDS011;8756;49.29324300;8.70599800;2022-12-11T18:42:29;66.53;;;33.57;;
5847;SDS011;8756;49.29324300;8.70599800;2022-12-11T18:44:56;71.23;;;35.27;;
5847;SDS011;8756;49.29324300;8.70599800;2022-12-11T18:47:22;67.90;;;37.20;;
5847;SDS011;8756;49.29324300;8.70599800;2022-12-11T18:49:49;73.33;;;36.03;;
5847;SDS011;8756;49.29324300;8.70599800;2022-12-11T18:52:20;66.53;;;33.20;;
5847;SDS011;8756;49.29324300;8.70599800;2022-12-11T18:54:47;66.00;;;35.87;;
5847;SDS011;8756;49.29324300;8.70599800;2022-12-11T18:57:16;68.53;;;30.93;;
5847;SDS011;8756;49.29324300;8.70599800;2022-12-11T18:59:42;69.57;;;34.50;;
5847;SDS011;8756;49.29324300;8.70599800;2022-12-11T19:02:09;61.30;;;32.70;;
5847;SDS011;8756;49.29324300;8.70599800;2022-12-11T19:04:36;68.87;;;35.03;;
5847;SDS011;8756;49.29324300;8.70599800;2022-12-11T19:07:02;65.37;;;33.67;;